sensor_id;sensor_type;location;lat;lon;timestamp;temperature;humidity
26595;DHT22;14238;49.496;8.154;2024-01-30T00:04:43;1.90;99.90
26595;DHT22;14238;49.496;8.154;2024-01-30T00:07:09;2.10;99.90
26595;DHT22;14238;49.496;8.154;2024-01-30T00:09:34;2.00;99.90
26595;DHT22;14238;49.496;8.154;2024-01-30T00:12:00;1.80;99.90
26595;DHT22;14238;49.496;8.154;2024-01-30T00:14:26;1.70;99.90
26595;DHT22;14238;49.496;8.154;2024-01-30T00:16:51;1.90;99.90
26595;DHT22;14238;49.496;8.154;2024-01-30T00:19:17;2.00;99.90
26595;DHT22;14238;49.496;8.154;2024-01-30T00:21:43;1.70;99.90
26595;DHT22;14238;49.496;8.154;2024-01-30T01:13:25;1.00;99.90
26595;DHT22;14238;49.496;8.154;2024-01-30T01:15:50;1.10;99.90
26595;DHT22;14238;49.496;8.154;2024-01-30T01:18:18;0.70;99.90
26595;DHT22;14238;49.496;8.154;2024-01-30T01:23:15;1.00;99.90
26595;DHT22;14238;49.496;8.154;2024-01-30T01:45:19;1.00;99.90
26595;DHT22;14238;49.496;8.154;2024-01-30T01:47:48;0.90;99.90
26595;DHT22;14238;49.496;8.154;2024-01-30T01:50:16;0.80;99.90
26595;DHT22;14238;49.496;8.154;2024-01-30T01:52:47;0.70;99.90
26595;DHT22;14238;49.496;8.154;2024-01-30T01:55:13;0.70;99.90
26595;DHT22;14238;49.496;8.154;2024-01-30T01:57:40;0.80;99.90
26595;DHT22;14238;49.496;8.154;2024-01-30T02:17:16;0.50;99.90
26595;DHT22;14238;49.496;8.154;2024-01-30T02:44:04;0.50;99.90
26595;DHT22;14238;49.496;8.154;2024-01-30T02:46:29;0.40;99.90
26595;DHT22;14238;49.496;8.154;2024-01-30T02:48:55;1.00;99.90
26595;DHT22;14238;49.496;8.154;2024-01-30T02:51:21;1.20;99.90
26595;DHT22;14238;49.496;8.154;2024-01-30T02:53:46;1.10;99.90
26595;DHT22;14238;49.496;8.154;2024-01-30T03:03:33;0.40;99.90
26595;DHT22;14238;49.496;8.154;2024-01-30T03:23:08;0.40;99.90
26595;DHT22;14238;49.496;8.154;2024-01-30T03:25:33;0.50;99.90
26595;DHT22;14238;49.496;8.154;2024-01-30T03:27:59;0.30;99.90
26595;DHT22;14238;49.496;8.154;2024-01-30T03:30:24;0.20;99.90
26595;DHT22;14238;49.496;8.154;2024-01-30T03:32:50;0.20;99.90
26595;DHT22;14238;49.496;8.154;2024-01-30T03:35:15;0.20;99.90
26595;DHT22;14238;49.496;8.154;2024-01-30T03:37:41;0.20;99.90
26595;DHT22;14238;49.496;8.154;2024-01-30T03:40:07;0.30;99.90
26595;DHT22;14238;49.496;8.154;2024-01-30T03:42:32;-0.10;99.90
26595;DHT22;14238;49.496;8.154;2024-01-30T03:44:58;0.20;99.90
26595;DHT22;14238;49.496;8.154;2024-01-30T03:47:24;0.10;99.90
26595;DHT22;14238;49.496;8.154;2024-01-30T03:49:49;0.00;99.90
26595;DHT22;14238;49.496;8.154;2024-01-30T03:52:15;0.00;99.90
26595;DHT22;14238;49.496;8.154;2024-01-30T03:54:40;0.00;99.90
26595;DHT22;14238;49.496;8.154;2024-01-30T03:57:06;0.00;99.90
26595;DHT22;14238;49.496;8.154;2024-01-30T03:59:31;-0.10;99.90
26595;DHT22;14238;49.496;8.154;2024-01-30T04:01:57;-0.10;99.90
26595;DHT22;14238;49.496;8.154;2024-01-30T04:04:23;-0.10;99.90
26595;DHT22;14238;49.496;8.154;2024-01-30T04:06:48;-0.10;99.90
26595;DHT22;14238;49.496;8.154;2024-01-30T04:09:14;-0.10;99.90
26595;DHT22;14238;49.496;8.154;2024-01-30T04:11:40;0.00;99.90
26595;DHT22;14238;49.496;8.154;2024-01-30T04:16:42;-0.10;99.90
26595;DHT22;14238;49.496;8.154;2024-01-30T04:19:07;-0.10;99.90
26595;DHT22;14238;49.496;8.154;2024-01-30T04:21:33;0.00;99.90
26595;DHT22;14238;49.496;8.154;2024-01-30T04:23:59;0.00;99.90
26595;DHT22;14238;49.496;8.154;2024-01-30T04:31:16;-0.10;99.90
26595;DHT22;14238;49.496;8.154;2024-01-30T04:33:42;-0.20;99.90
26595;DHT22;14238;49.496;8.154;2024-01-30T04:36:10;-0.20;99.90
26595;DHT22;14238;49.496;8.154;2024-01-30T04:38:37;-0.20;99.90
26595;DHT22;14238;49.496;8.154;2024-01-30T05:15:11;-0.10;99.90
26595;DHT22;14238;49.496;8.154;2024-01-30T05:17:36;-0.10;99.90
26595;DHT22;14238;49.496;8.154;2024-01-30T05:20:02;-0.10;99.90
26595;DHT22;14238;49.496;8.154;2024-01-30T05:22:28;-0.30;99.90
26595;DHT22;14238;49.496;8.154;2024-01-30T05:24:54;-0.30;99.90
26595;DHT22;14238;49.496;8.154;2024-01-30T05:27:19;-0.30;99.90
26595;DHT22;14238;49.496;8.154;2024-01-30T05:29:45;-0.40;99.90
26595;DHT22;14238;49.496;8.154;2024-01-30T05:32:11;-0.50;99.90
26595;DHT22;14238;49.496;8.154;2024-01-30T05:34:36;-0.40;99.90
26595;DHT22;14238;49.496;8.154;2024-01-30T05:37:02;-0.40;99.90
26595;DHT22;14238;49.496;8.154;2024-01-30T05:39:28;-0.30;99.90
26595;DHT22;14238;49.496;8.154;2024-01-30T05:41:53;-0.30;99.90
26595;DHT22;14238;49.496;8.154;2024-01-30T05:44:19;-0.30;99.90
26595;DHT22;14238;49.496;8.154;2024-01-30T05:46:45;-0.40;99.90
26595;DHT22;14238;49.496;8.154;2024-01-30T05:49:10;-0.40;99.90
26595;DHT22;14238;49.496;8.154;2024-01-30T05:51:36;-0.50;99.90
26595;DHT22;14238;49.496;8.154;2024-01-30T05:54:01;-0.50;99.90
26595;DHT22;14238;49.496;8.154;2024-01-30T05:56:28;-0.40;99.90
26595;DHT22;14238;49.496;8.154;2024-01-30T06:01:21;-0.40;99.90
26595;DHT22;14238;49.496;8.154;2024-01-30T06:06:13;-0.40;99.90
26595;DHT22;14238;49.496;8.154;2024-01-30T06:50:21;0.00;99.90
26595;DHT22;14238;49.496;8.154;2024-01-30T06:52:47;0.10;99.90
26595;DHT22;14238;49.496;8.154;2024-01-30T06:57:39;0.00;99.90
26595;DHT22;14238;49.496;8.154;2024-01-30T07:02:33;0.00;99.90
26595;DHT22;14238;49.496;8.154;2024-01-30T07:09:54;0.40;99.90
26595;DHT22;14238;49.496;8.154;2024-01-30T07:12:22;0.30;99.90
26595;DHT22;14238;49.496;8.154;2024-01-30T07:17:14;0.30;99.90
26595;DHT22;14238;49.496;8.154;2024-01-30T07:19:39;0.40;99.90
26595;DHT22;14238;49.496;8.154;2024-01-30T07:22:05;0.40;99.90
26595;DHT22;14238;49.496;8.154;2024-01-30T07:24:30;0.50;99.90
26595;DHT22;14238;49.496;8.154;2024-01-30T07:41:33;0.50;99.90
26595;DHT22;14238;49.496;8.154;2024-01-30T08:10:44;1.20;99.90
26595;DHT22;14238;49.496;8.154;2024-01-30T08:13:09;1.40;99.90
26595;DHT22;14238;49.496;8.154;2024-01-30T08:15:35;1.30;99.90
26595;DHT22;14238;49.496;8.154;2024-01-30T08:18:00;1.30;99.90
26595;DHT22;14238;49.496;8.154;2024-01-30T08:20:28;1.30;99.90
26595;DHT22;14238;49.496;8.154;2024-01-30T08:22:54;1.40;99.90
26595;DHT22;14238;49.496;8.154;2024-01-30T08:25:19;1.50;99.90
26595;DHT22;14238;49.496;8.154;2024-01-30T08:27:45;1.50;99.90
26595;DHT22;14238;49.496;8.154;2024-01-30T08:30:10;1.60;99.90
26595;DHT22;14238;49.496;8.154;2024-01-30T08:35:02;1.40;99.90
26595;DHT22;14238;49.496;8.154;2024-01-30T08:44:51;1.70;99.90
26595;DHT22;14238;49.496;8.154;2024-01-30T08:47:18;1.70;99.90
26595;DHT22;14238;49.496;8.154;2024-01-30T08:49:44;1.80;99.90
26595;DHT22;14238;49.496;8.154;2024-01-30T08:52:13;1.80;99.90
26595;DHT22;14238;49.496;8.154;2024-01-30T08:59:32;2.40;99.90
26595;DHT22;14238;49.496;8.154;2024-01-30T09:04:24;2.50;99.90
26595;DHT22;14238;49.496;8.154;2024-01-30T09:06:50;2.50;99.90
26595;DHT22;14238;49.496;8.154;2024-01-30T09:09:16;2.50;99.90
26595;DHT22;14238;49.496;8.154;2024-01-30T09:11:41;2.70;99.90
26595;DHT22;14238;49.496;8.154;2024-01-30T09:14:07;2.80;99.90
26595;DHT22;14238;49.496;8.154;2024-01-30T09:16:32;2.90;99.90
26595;DHT22;14238;49.496;8.154;2024-01-30T09:18:58;3.10;99.90
26595;DHT22;14238;49.496;8.154;2024-01-30T09:21:24;3.20;99.90
26595;DHT22;14238;49.496;8.154;2024-01-30T09:23:50;3.40;99.90
26595;DHT22;14238;49.496;8.154;2024-01-30T09:26:15;3.50;99.90
26595;DHT22;14238;49.496;8.154;2024-01-30T09:28:41;3.70;99.90
26595;DHT22;14238;49.496;8.154;2024-01-30T09:31:11;3.90;99.90
26595;DHT22;14238;49.496;8.154;2024-01-30T09:33:37;4.30;99.90
26595;DHT22;14238;49.496;8.154;2024-01-30T09:36:02;4.70;99.90
26595;DHT22;14238;49.496;8.154;2024-01-30T09:38:28;4.90;99.90
26595;DHT22;14238;49.496;8.154;2024-01-30T09:40:54;5.10;99.90
26595;DHT22;14238;49.496;8.154;2024-01-30T09:45:53;5.40;99.90
26595;DHT22;14238;49.496;8.154;2024-01-30T09:50:46;6.00;99.90
26595;DHT22;14238;49.496;8.154;2024-01-30T09:53:13;6.20;99.90
26595;DHT22;14238;49.496;8.154;2024-01-30T09:55:42;6.20;99.90
26595;DHT22;14238;49.496;8.154;2024-01-30T09:58:08;6.00;99.90
26595;DHT22;14238;49.496;8.154;2024-01-30T10:00:34;6.20;99.90
26595;DHT22;14238;49.496;8.154;2024-01-30T10:02:59;6.10;99.90
26595;DHT22;14238;49.496;8.154;2024-01-30T10:05:27;6.10;99.90
26595;DHT22;14238;49.496;8.154;2024-01-30T10:07:56;6.20;99.90
26595;DHT22;14238;49.496;8.154;2024-01-30T10:10:23;6.50;99.90
26595;DHT22;14238;49.496;8.154;2024-01-30T10:12:51;6.60;99.90
26595;DHT22;14238;49.496;8.154;2024-01-30T10:20:12;7.60;99.90
26595;DHT22;14238;49.496;8.154;2024-01-30T10:22:41;7.80;99.90
26595;DHT22;14238;49.496;8.154;2024-01-30T10:27:41;7.50;99.90
26595;DHT22;14238;49.496;8.154;2024-01-30T23:48:58;9.40;99.90
